sensor_id;sensor_type;location;lat;lon;timestamp;P1;durP1;ratioP1;P2;durP2;ratioP2
79755;SDS011;69239;50.678;12.280;2023-09-07T00:00:12;7.10;;;3.67;;
79755;SDS011;69239;50.678;12.280;2023-09-07T00:02:39;7.38;;;3.67;;
79755;SDS011;69239;50.678;12.280;2023-09-07T00:05:05;4.63;;;3.50;;
79755;SDS011;69239;50.678;12.280;2023-09-07T00:07:31;6.82;;;3.60;;
79755;SDS011;69239;50.678;12.280;2023-09-07T00:09:57;6.65;;;3.75;;
79755;SDS011;69239;50.678;12.280;2023-09-07T00:12:22;5.63;;;3.77;;
79755;SDS011;69239;50.678;12.280;2023-09-07T00:14:47;5.93;;;3.77;;
79755;SDS011;69239;50.678;12.280;2023-09-07T00:17:13;6.47;;;3.73;;
79755;SDS011;69239;50.678;12.280;2023-09-07T00:19:38;4.75;;;4.03;;
79755;SDS011;69239;50.678;12.280;2023-09-07T00:22:03;4.78;;;3.83;;
79755;SDS011;69239;50.678;12.280;2023-09-07T00:24:29;5.63;;;3.80;;
79755;SDS011;69239;50.678;12.280;2023-09-07T00:26:56;4.25;;;3.40;;
79755;SDS011;69239;50.678;12.280;2023-09-07T00:29:22;8.60;;;3.55;;
79755;SDS011;69239;50.678;12.280;2023-09-07T00:31:47;5.83;;;3.50;;
79755;SDS011;69239;50.678;12.280;2023-09-07T00:34:12;8.38;;;3.95;;
79755;SDS011;69239;50.678;12.280;2023-09-07T00:36:38;6.23;;;3.67;;
79755;SDS011;69239;50.678;12.280;2023-09-07T00:39:03;5.53;;;3.70;;
79755;SDS011;69239;50.678;12.280;2023-09-07T00:41:30;6.43;;;3.67;;
79755;SDS011;69239;50.678;12.280;2023-09-07T00:43:55;5.13;;;3.42;;
79755;SDS011;69239;50.678;12.280;2023-09-07T00:46:20;4.88;;;3.40;;
79755;SDS011;69239;50.678;12.280;2023-09-07T00:48:47;5.32;;;3.83;;
79755;SDS011;69239;50.678;12.280;2023-09-07T00:51:13;5.45;;;3.85;;
79755;SDS011;69239;50.678;12.280;2023-09-07T00:53:38;4.50;;;3.53;;
79755;SDS011;69239;50.678;12.280;2023-09-07T00:56:04;6.72;;;3.97;;
79755;SDS011;69239;50.678;12.280;2023-09-07T00:58:31;6.07;;;3.60;;
79755;SDS011;69239;50.678;12.280;2023-09-07T01:00:57;5.88;;;3.80;;
79755;SDS011;69239;50.678;12.280;2023-09-07T01:03:22;4.60;;;3.78;;
79755;SDS011;69239;50.678;12.280;2023-09-07T01:08:39;6.03;;;4.03;;
79755;SDS011;69239;50.678;12.280;2023-09-07T01:11:14;5.68;;;3.95;;
79755;SDS011;69239;50.678;12.280;2023-09-07T01:13:51;5.47;;;4.00;;
79755;SDS011;69239;50.678;12.280;2023-09-07T01:16:18;5.25;;;3.72;;
79755;SDS011;69239;50.678;12.280;2023-09-07T01:18:45;14.80;;;4.60;;
79755;SDS011;69239;50.678;12.280;2023-09-07T01:21:11;5.65;;;3.92;;
79755;SDS011;69239;50.678;12.280;2023-09-07T01:23:38;8.63;;;4.28;;
79755;SDS011;69239;50.678;12.280;2023-09-07T01:26:06;6.40;;;3.72;;
79755;SDS011;69239;50.678;12.280;2023-09-07T01:28:33;5.63;;;3.53;;
79755;SDS011;69239;50.678;12.280;2023-09-07T01:30:59;6.45;;;3.78;;
79755;SDS011;69239;50.678;12.280;2023-09-07T01:33:24;8.77;;;4.00;;
79755;SDS011;69239;50.678;12.280;2023-09-07T01:35:50;5.28;;;3.70;;
79755;SDS011;69239;50.678;12.280;2023-09-07T01:38:15;7.35;;;3.80;;
79755;SDS011;69239;50.678;12.280;2023-09-07T01:40:41;5.78;;;3.70;;
79755;SDS011;69239;50.678;12.280;2023-09-07T01:43:06;5.88;;;4.30;;
79755;SDS011;69239;50.678;12.280;2023-09-07T01:45:31;6.00;;;3.75;;
79755;SDS011;69239;50.678;12.280;2023-09-07T01:47:57;7.47;;;4.20;;
79755;SDS011;69239;50.678;12.280;2023-09-07T01:50:23;6.68;;;3.92;;
79755;SDS011;69239;50.678;12.280;2023-09-07T01:52:50;5.65;;;3.65;;
79755;SDS011;69239;50.678;12.280;2023-09-07T01:55:16;7.57;;;4.22;;
79755;SDS011;69239;50.678;12.280;2023-09-07T01:57:41;10.27;;;3.80;;
79755;SDS011;69239;50.678;12.280;2023-09-07T02:00:07;5.03;;;3.72;;
79755;SDS011;69239;50.678;12.280;2023-09-07T02:02:33;5.45;;;4.13;;
79755;SDS011;69239;50.678;12.280;2023-09-07T02:04:58;5.38;;;3.58;;
79755;SDS011;69239;50.678;12.280;2023-09-07T02:07:23;6.43;;;4.22;;
79755;SDS011;69239;50.678;12.280;2023-09-07T02:09:49;4.82;;;3.83;;
79755;SDS011;69239;50.678;12.280;2023-09-07T02:12:14;7.10;;;3.95;;
79755;SDS011;69239;50.678;12.280;2023-09-07T02:14:39;6.55;;;4.18;;
79755;SDS011;69239;50.678;12.280;2023-09-07T02:17:05;5.78;;;3.90;;
79755;SDS011;69239;50.678;12.280;2023-09-07T02:19:31;8.43;;;4.10;;
79755;SDS011;69239;50.678;12.280;2023-09-07T02:21:56;4.60;;;3.92;;
79755;SDS011;69239;50.678;12.280;2023-09-07T02:24:22;5.78;;;3.60;;
79755;SDS011;69239;50.678;12.280;2023-09-07T02:26:47;7.10;;;3.85;;
79755;SDS011;69239;50.678;12.280;2023-09-07T02:29:12;5.53;;;3.77;;
79755;SDS011;69239;50.678;12.280;2023-09-07T02:31:39;5.32;;;3.97;;
79755;SDS011;69239;50.678;12.280;2023-09-07T02:34:04;5.40;;;4.20;;
79755;SDS011;69239;50.678;12.280;2023-09-07T02:36:30;6.60;;;4.25;;
79755;SDS011;69239;50.678;12.280;2023-09-07T02:38:55;6.37;;;4.43;;
79755;SDS011;69239;50.678;12.280;2023-09-07T02:41:20;6.80;;;4.13;;
79755;SDS011;69239;50.678;12.280;2023-09-07T02:43:46;6.10;;;4.28;;
79755;SDS011;69239;50.678;12.280;2023-09-07T02:46:11;7.28;;;4.20;;
79755;SDS011;69239;50.678;12.280;2023-09-07T02:48:36;5.23;;;3.63;;
79755;SDS011;69239;50.678;12.280;2023-09-07T02:51:02;6.10;;;4.23;;
79755;SDS011;69239;50.678;12.280;2023-09-07T02:53:28;5.30;;;3.95;;
79755;SDS011;69239;50.678;12.280;2023-09-07T02:55:53;6.45;;;4.55;;
79755;SDS011;69239;50.678;12.280;2023-09-07T02:58:18;10.20;;;3.90;;
79755;SDS011;69239;50.678;12.280;2023-09-07T03:00:44;6.65;;;4.43;;
79755;SDS011;69239;50.678;12.280;2023-09-07T03:03:11;5.78;;;4.38;;
79755;SDS011;69239;50.678;12.280;2023-09-07T03:05:41;6.45;;;4.07;;
79755;SDS011;69239;50.678;12.280;2023-09-07T03:08:06;4.80;;;3.70;;
79755;SDS011;69239;50.678;12.280;2023-09-07T03:10:33;6.82;;;4.00;;
79755;SDS011;69239;50.678;12.280;2023-09-07T03:13:03;7.03;;;4.68;;
79755;SDS011;69239;50.678;12.280;2023-09-07T03:15:28;7.05;;;4.28;;
79755;SDS011;69239;50.678;12.280;2023-09-07T03:17:54;6.60;;;4.10;;
79755;SDS011;69239;50.678;12.280;2023-09-07T03:20:19;5.38;;;3.97;;
79755;SDS011;69239;50.678;12.280;2023-09-07T03:22:45;6.75;;;4.07;;
79755;SDS011;69239;50.678;12.280;2023-09-07T03:25:13;7.10;;;4.35;;
79755;SDS011;69239;50.678;12.280;2023-09-07T03:27:38;6.85;;;4.57;;
79755;SDS011;69239;50.678;12.280;2023-09-07T03:30:04;6.60;;;4.05;;
79755;SDS011;69239;50.678;12.280;2023-09-07T03:32:31;9.60;;;5.07;;
79755;SDS011;69239;50.678;12.280;2023-09-07T03:34:58;4.45;;;3.72;;
79755;SDS011;69239;50.678;12.280;2023-09-07T03:37:29;4.55;;;3.63;;
79755;SDS011;69239;50.678;12.280;2023-09-07T03:39:55;4.45;;;3.60;;
79755;SDS011;69239;50.678;12.280;2023-09-07T03:42:21;7.40;;;4.25;;
79755;SDS011;69239;50.678;12.280;2023-09-07T03:44:47;4.68;;;3.75;;
79755;SDS011;69239;50.678;12.280;2023-09-07T03:47:13;5.85;;;4.30;;
79755;SDS011;69239;50.678;12.280;2023-09-07T03:49:39;7.25;;;4.35;;
79755;SDS011;69239;50.678;12.280;2023-09-07T03:52:04;6.50;;;4.20;;
79755;SDS011;69239;50.678;12.280;2023-09-07T03:54:30;5.60;;;4.05;;
79755;SDS011;69239;50.678;12.280;2023-09-07T03:56:56;7.97;;;4.55;;
79755;SDS011;69239;50.678;12.280;2023-09-07T03:59:22;9.93;;;4.68;;
79755;SDS011;69239;50.678;12.280;2023-09-07T04:01:47;4.82;;;3.47;;
79755;SDS011;69239;50.678;12.280;2023-09-07T04:04:12;5.27;;;4.13;;
79755;SDS011;69239;50.678;12.280;2023-09-07T04:06:38;5.50;;;4.03;;
79755;SDS011;69239;50.678;12.280;2023-09-07T04:09:03;8.50;;;4.38;;
79755;SDS011;69239;50.678;12.280;2023-09-07T04:11:30;8.25;;;4.82;;
79755;SDS011;69239;50.678;12.280;2023-09-07T04:13:55;6.70;;;4.95;;
79755;SDS011;69239;50.678;12.280;2023-09-07T04:16:20;7.77;;;4.23;;
79755;SDS011;69239;50.678;12.280;2023-09-07T04:18:46;7.30;;;4.30;;
79755;SDS011;69239;50.678;12.280;2023-09-07T04:21:11;7.13;;;4.63;;
79755;SDS011;69239;50.678;12.280;2023-09-07T04:23:37;5.20;;;4.10;;
79755;SDS011;69239;50.678;12.280;2023-09-07T04:26:07;5.45;;;3.83;;
79755;SDS011;69239;50.678;12.280;2023-09-07T04:28:33;6.18;;;3.63;;
79755;SDS011;69239;50.678;12.280;2023-09-07T04:30:59;4.22;;;3.40;;
79755;SDS011;69239;50.678;12.280;2023-09-07T04:33:24;4.57;;;3.95;;
79755;SDS011;69239;50.678;12.280;2023-09-07T04:35:50;4.88;;;3.97;;
79755;SDS011;69239;50.678;12.280;2023-09-07T04:38:15;14.65;;;4.10;;
79755;SDS011;69239;50.678;12.280;2023-09-07T04:40:40;6.13;;;3.97;;
79755;SDS011;69239;50.678;12.280;2023-09-07T04:43:06;7.13;;;4.00;;
79755;SDS011;69239;50.678;12.280;2023-09-07T04:45:31;5.50;;;3.80;;
79755;SDS011;69239;50.678;12.280;2023-09-07T04:47:56;6.82;;;4.35;;
79755;SDS011;69239;50.678;12.280;2023-09-07T04:50:22;6.35;;;3.50;;
79755;SDS011;69239;50.678;12.280;2023-09-07T04:52:47;6.57;;;4.22;;
79755;SDS011;69239;50.678;12.280;2023-09-07T04:55:12;5.78;;;4.00;;
79755;SDS011;69239;50.678;12.280;2023-09-07T04:57:38;7.22;;;4.00;;
79755;SDS011;69239;50.678;12.280;2023-09-07T05:00:04;5.55;;;4.03;;
79755;SDS011;69239;50.678;12.280;2023-09-07T05:02:31;8.93;;;4.20;;
79755;SDS011;69239;50.678;12.280;2023-09-07T05:04:56;5.68;;;4.30;;
79755;SDS011;69239;50.678;12.280;2023-09-07T05:07:22;5.63;;;4.03;;
79755;SDS011;69239;50.678;12.280;2023-09-07T05:09:47;7.75;;;4.65;;
79755;SDS011;69239;50.678;12.280;2023-09-07T05:12:14;6.95;;;4.82;;
79755;SDS011;69239;50.678;12.280;2023-09-07T05:14:43;5.20;;;4.15;;
79755;SDS011;69239;50.678;12.280;2023-09-07T05:17:08;10.45;;;4.30;;
79755;SDS011;69239;50.678;12.280;2023-09-07T05:19:34;7.90;;;4.30;;
79755;SDS011;69239;50.678;12.280;2023-09-07T05:21:59;5.90;;;4.70;;
79755;SDS011;69239;50.678;12.280;2023-09-07T05:24:25;9.55;;;4.30;;
79755;SDS011;69239;50.678;12.280;2023-09-07T05:26:51;13.30;;;4.22;;
79755;SDS011;69239;50.678;12.280;2023-09-07T05:29:16;5.00;;;3.83;;
79755;SDS011;69239;50.678;12.280;2023-09-07T05:31:41;5.85;;;4.00;;
79755;SDS011;69239;50.678;12.280;2023-09-07T05:34:07;7.30;;;3.70;;
79755;SDS011;69239;50.678;12.280;2023-09-07T05:36:32;8.65;;;4.22;;
79755;SDS011;69239;50.678;12.280;2023-09-07T05:38:58;5.88;;;4.03;;
79755;SDS011;69239;50.678;12.280;2023-09-07T05:41:24;6.63;;;4.30;;
79755;SDS011;69239;50.678;12.280;2023-09-07T05:43:49;5.35;;;4.43;;
79755;SDS011;69239;50.678;12.280;2023-09-07T05:46:15;6.43;;;4.53;;
79755;SDS011;69239;50.678;12.280;2023-09-07T05:48:40;6.70;;;4.50;;
79755;SDS011;69239;50.678;12.280;2023-09-07T05:51:05;7.35;;;4.45;;
79755;SDS011;69239;50.678;12.280;2023-09-07T05:53:31;10.35;;;4.88;;
79755;SDS011;69239;50.678;12.280;2023-09-07T05:55:56;6.10;;;4.43;;
79755;SDS011;69239;50.678;12.280;2023-09-07T05:58:22;7.15;;;5.20;;
79755;SDS011;69239;50.678;12.280;2023-09-07T06:00:47;7.43;;;4.88;;
79755;SDS011;69239;50.678;12.280;2023-09-07T06:03:13;8.20;;;5.45;;
79755;SDS011;69239;50.678;12.280;2023-09-07T06:05:38;7.55;;;5.55;;
79755;SDS011;69239;50.678;12.280;2023-09-07T06:08:04;8.13;;;5.40;;
79755;SDS011;69239;50.678;12.280;2023-09-07T06:10:31;9.95;;;4.60;;
79755;SDS011;69239;50.678;12.280;2023-09-07T06:12:57;8.00;;;5.00;;
79755;SDS011;69239;50.678;12.280;2023-09-07T06:15:22;8.18;;;4.15;;
79755;SDS011;69239;50.678;12.280;2023-09-07T06:17:48;6.88;;;5.03;;
79755;SDS011;69239;50.678;12.280;2023-09-07T06:20:15;8.50;;;5.30;;
79755;SDS011;69239;50.678;12.280;2023-09-07T06:22:40;8.48;;;6.00;;
79755;SDS011;69239;50.678;12.280;2023-09-07T06:25:06;9.70;;;6.50;;
79755;SDS011;69239;50.678;12.280;2023-09-07T06:27:31;9.20;;;6.55;;
79755;SDS011;69239;50.678;12.280;2023-09-07T06:29:57;8.10;;;5.78;;
79755;SDS011;69239;50.678;12.280;2023-09-07T06:32:22;7.00;;;5.38;;
79755;SDS011;69239;50.678;12.280;2023-09-07T06:34:48;7.10;;;5.82;;
79755;SDS011;69239;50.678;12.280;2023-09-07T06:37:13;8.47;;;5.57;;
79755;SDS011;69239;50.678;12.280;2023-09-07T06:39:38;7.88;;;4.43;;
79755;SDS011;69239;50.678;12.280;2023-09-07T06:42:04;7.20;;;4.65;;
79755;SDS011;69239;50.678;12.280;2023-09-07T06:44:29;7.88;;;5.38;;
79755;SDS011;69239;50.678;12.280;2023-09-07T06:46:55;7.35;;;5.55;;
79755;SDS011;69239;50.678;12.280;2023-09-07T06:49:21;7.25;;;5.65;;
79755;SDS011;69239;50.678;12.280;2023-09-07T06:51:46;8.02;;;4.63;;
79755;SDS011;69239;50.678;12.280;2023-09-07T06:54:12;5.90;;;3.92;;
79755;SDS011;69239;50.678;12.280;2023-09-07T06:56:38;8.65;;;4.20;;
79755;SDS011;69239;50.678;12.280;2023-09-07T06:59:03;6.15;;;4.20;;
79755;SDS011;69239;50.678;12.280;2023-09-07T07:01:29;9.05;;;4.57;;
79755;SDS011;69239;50.678;12.280;2023-09-07T07:03:54;9.73;;;4.65;;
79755;SDS011;69239;50.678;12.280;2023-09-07T07:06:22;5.47;;;3.65;;
79755;SDS011;69239;50.678;12.280;2023-09-07T07:08:47;6.43;;;4.45;;
79755;SDS011;69239;50.678;12.280;2023-09-07T07:11:13;6.95;;;4.35;;
79755;SDS011;69239;50.678;12.280;2023-09-07T07:13:38;13.35;;;4.25;;
79755;SDS011;69239;50.678;12.280;2023-09-07T07:16:04;7.43;;;3.88;;
79755;SDS011;69239;50.678;12.280;2023-09-07T07:18:30;6.88;;;4.03;;
79755;SDS011;69239;50.678;12.280;2023-09-07T07:20:55;10.90;;;4.57;;
79755;SDS011;69239;50.678;12.280;2023-09-07T07:23:20;8.05;;;4.30;;
79755;SDS011;69239;50.678;12.280;2023-09-07T07:25:46;8.00;;;4.85;;
79755;SDS011;69239;50.678;12.280;2023-09-07T07:28:12;6.53;;;4.22;;
79755;SDS011;69239;50.678;12.280;2023-09-07T07:30:38;6.38;;;4.30;;
79755;SDS011;69239;50.678;12.280;2023-09-07T07:33:08;5.18;;;3.63;;
79755;SDS011;69239;50.678;12.280;2023-09-07T07:35:33;4.30;;;3.90;;
79755;SDS011;69239;50.678;12.280;2023-09-07T07:38:03;8.70;;;3.65;;
79755;SDS011;69239;50.678;12.280;2023-09-07T07:40:32;13.25;;;4.63;;
79755;SDS011;69239;50.678;12.280;2023-09-07T07:42:57;6.05;;;3.70;;
79755;SDS011;69239;50.678;12.280;2023-09-07T07:45:23;4.82;;;4.03;;
79755;SDS011;69239;50.678;12.280;2023-09-07T07:47:49;6.18;;;3.92;;
79755;SDS011;69239;50.678;12.280;2023-09-07T07:50:15;7.85;;;4.10;;
79755;SDS011;69239;50.678;12.280;2023-09-07T07:52:41;8.00;;;4.07;;
79755;SDS011;69239;50.678;12.280;2023-09-07T07:55:06;6.20;;;3.88;;
79755;SDS011;69239;50.678;12.280;2023-09-07T07:57:32;8.10;;;4.13;;
79755;SDS011;69239;50.678;12.280;2023-09-07T07:59:58;5.07;;;3.55;;
79755;SDS011;69239;50.678;12.280;2023-09-07T08:02:23;6.90;;;3.80;;
79755;SDS011;69239;50.678;12.280;2023-09-07T08:04:49;9.60;;;3.63;;
79755;SDS011;69239;50.678;12.280;2023-09-07T08:07:14;7.28;;;3.50;;
79755;SDS011;69239;50.678;12.280;2023-09-07T08:09:40;7.32;;;3.50;;
79755;SDS011;69239;50.678;12.280;2023-09-07T08:12:05;17.88;;;4.47;;
79755;SDS011;69239;50.678;12.280;2023-09-07T08:14:32;5.72;;;3.15;;
79755;SDS011;69239;50.678;12.280;2023-09-07T08:16:57;6.70;;;3.38;;
79755;SDS011;69239;50.678;12.280;2023-09-07T08:19:23;5.65;;;3.17;;
79755;SDS011;69239;50.678;12.280;2023-09-07T08:21:49;3.95;;;3.00;;
79755;SDS011;69239;50.678;12.280;2023-09-07T08:24:15;6.28;;;2.83;;
79755;SDS011;69239;50.678;12.280;2023-09-07T08:26:40;6.35;;;2.85;;
79755;SDS011;69239;50.678;12.280;2023-09-07T08:29:07;5.63;;;3.25;;
79755;SDS011;69239;50.678;12.280;2023-09-07T08:31:37;4.47;;;2.60;;
79755;SDS011;69239;50.678;12.280;2023-09-07T08:34:06;4.38;;;2.90;;
79755;SDS011;69239;50.678;12.280;2023-09-07T08:36:34;3.30;;;2.70;;
79755;SDS011;69239;50.678;12.280;2023-09-07T08:39:00;3.35;;;2.83;;
79755;SDS011;69239;50.678;12.280;2023-09-07T08:41:30;4.57;;;2.78;;
79755;SDS011;69239;50.678;12.280;2023-09-07T08:43:57;3.05;;;2.58;;
79755;SDS011;69239;50.678;12.280;2023-09-07T08:46:22;3.08;;;2.78;;
79755;SDS011;69239;50.678;12.280;2023-09-07T08:48:49;4.72;;;2.97;;
79755;SDS011;69239;50.678;12.280;2023-09-07T08:51:15;4.38;;;2.80;;
79755;SDS011;69239;50.678;12.280;2023-09-07T08:53:42;5.88;;;3.22;;
79755;SDS011;69239;50.678;12.280;2023-09-07T08:56:14;9.10;;;3.00;;
79755;SDS011;69239;50.678;12.280;2023-09-07T08:58:39;3.35;;;2.78;;
79755;SDS011;69239;50.678;12.280;2023-09-07T09:01:09;4.22;;;2.70;;
79755;SDS011;69239;50.678;12.280;2023-09-07T09:03:35;4.57;;;3.28;;
79755;SDS011;69239;50.678;12.280;2023-09-07T09:06:01;5.60;;;2.63;;
79755;SDS011;69239;50.678;12.280;2023-09-07T09:08:28;3.60;;;2.80;;
79755;SDS011;69239;50.678;12.280;2023-09-07T09:11:03;7.68;;;3.20;;
79755;SDS011;69239;50.678;12.280;2023-09-07T09:13:31;3.92;;;2.88;;
79755;SDS011;69239;50.678;12.280;2023-09-07T09:16:00;4.72;;;3.45;;
79755;SDS011;69239;50.678;12.280;2023-09-07T09:18:26;6.28;;;3.40;;
79755;SDS011;69239;50.678;12.280;2023-09-07T09:20:52;3.55;;;2.63;;
79755;SDS011;69239;50.678;12.280;2023-09-07T09:23:19;7.13;;;2.88;;
79755;SDS011;69239;50.678;12.280;2023-09-07T09:25:45;4.28;;;2.70;;
79755;SDS011;69239;50.678;12.280;2023-09-07T09:28:10;3.75;;;2.70;;
79755;SDS011;69239;50.678;12.280;2023-09-07T09:30:36;6.85;;;3.20;;
79755;SDS011;69239;50.678;12.280;2023-09-07T09:33:02;6.28;;;2.83;;
79755;SDS011;69239;50.678;12.280;2023-09-07T09:35:30;6.90;;;3.00;;
79755;SDS011;69239;50.678;12.280;2023-09-07T09:38:00;3.80;;;2.88;;
79755;SDS011;69239;50.678;12.280;2023-09-07T09:40:26;4.88;;;2.88;;
79755;SDS011;69239;50.678;12.280;2023-09-07T09:42:51;4.35;;;3.60;;
79755;SDS011;69239;50.678;12.280;2023-09-07T09:45:18;6.47;;;3.17;;
79755;SDS011;69239;50.678;12.280;2023-09-07T09:47:45;6.22;;;3.22;;
79755;SDS011;69239;50.678;12.280;2023-09-07T09:50:11;4.90;;;3.00;;
79755;SDS011;69239;50.678;12.280;2023-09-07T09:52:37;5.15;;;2.60;;
79755;SDS011;69239;50.678;12.280;2023-09-07T09:55:03;6.38;;;3.10;;
79755;SDS011;69239;50.678;12.280;2023-09-07T09:57:36;3.83;;;2.70;;
79755;SDS011;69239;50.678;12.280;2023-09-07T10:00:02;3.28;;;2.70;;
79755;SDS011;69239;50.678;12.280;2023-09-07T10:02:50;5.53;;;2.80;;
79755;SDS011;69239;50.678;12.280;2023-09-07T10:05:20;5.13;;;3.28;;
79755;SDS011;69239;50.678;12.280;2023-09-07T10:07:49;4.63;;;2.90;;
79755;SDS011;69239;50.678;12.280;2023-09-07T10:10:15;5.22;;;2.97;;
79755;SDS011;69239;50.678;12.280;2023-09-07T10:12:43;4.45;;;2.70;;
79755;SDS011;69239;50.678;12.280;2023-09-07T10:15:20;4.35;;;3.10;;
79755;SDS011;69239;50.678;12.280;2023-09-07T10:23:15;4.13;;;2.97;;
79755;SDS011;69239;50.678;12.280;2023-09-07T10:25:40;4.53;;;2.63;;
79755;SDS011;69239;50.678;12.280;2023-09-07T10:28:16;3.47;;;2.90;;
79755;SDS011;69239;50.678;12.280;2023-09-07T10:30:46;4.18;;;2.83;;
79755;SDS011;69239;50.678;12.280;2023-09-07T10:33:42;3.67;;;2.85;;
79755;SDS011;69239;50.678;12.280;2023-09-07T10:36:08;4.57;;;3.00;;
79755;SDS011;69239;50.678;12.280;2023-09-07T10:38:44;3.85;;;3.13;;
79755;SDS011;69239;50.678;12.280;2023-09-07T10:41:10;4.10;;;2.70;;
79755;SDS011;69239;50.678;12.280;2023-09-07T10:43:36;3.30;;;2.53;;
79755;SDS011;69239;50.678;12.280;2023-09-07T10:46:17;4.80;;;2.90;;
79755;SDS011;69239;50.678;12.280;2023-09-07T10:48:44;5.00;;;2.80;;
79755;SDS011;69239;50.678;12.280;2023-09-07T10:51:09;2.70;;;2.47;;
79755;SDS011;69239;50.678;12.280;2023-09-07T10:53:34;3.67;;;2.88;;
79755;SDS011;69239;50.678;12.280;2023-09-07T10:56:02;2.95;;;2.63;;
79755;SDS011;69239;50.678;12.280;2023-09-07T10:58:33;4.00;;;2.90;;
79755;SDS011;69239;50.678;12.280;2023-09-07T11:01:00;4.93;;;2.30;;
79755;SDS011;69239;50.678;12.280;2023-09-07T11:03:30;8.90;;;3.03;;
79755;SDS011;69239;50.678;12.280;2023-09-07T11:06:00;4.05;;;2.33;;
79755;SDS011;69239;50.678;12.280;2023-09-07T11:08:29;4.43;;;3.00;;
79755;SDS011;69239;50.678;12.280;2023-09-07T11:10:55;9.23;;;3.17;;
79755;SDS011;69239;50.678;12.280;2023-09-07T11:13:21;7.25;;;3.17;;
79755;SDS011;69239;50.678;12.280;2023-09-07T11:15:48;5.15;;;2.83;;
79755;SDS011;69239;50.678;12.280;2023-09-07T11:18:18;14.52;;;4.05;;
79755;SDS011;69239;50.678;12.280;2023-09-07T11:20:45;8.32;;;3.00;;
79755;SDS011;69239;50.678;12.280;2023-09-07T11:23:10;8.30;;;3.20;;
79755;SDS011;69239;50.678;12.280;2023-09-07T11:25:36;6.18;;;2.97;;
79755;SDS011;69239;50.678;12.280;2023-09-07T11:28:04;5.53;;;2.80;;
79755;SDS011;69239;50.678;12.280;2023-09-07T11:30:30;11.23;;;3.42;;
79755;SDS011;69239;50.678;12.280;2023-09-07T11:33:02;7.90;;;3.05;;
79755;SDS011;69239;50.678;12.280;2023-09-07T11:35:30;4.78;;;2.95;;
79755;SDS011;69239;50.678;12.280;2023-09-07T11:37:55;2.97;;;2.58;;
79755;SDS011;69239;50.678;12.280;2023-09-07T11:40:21;4.80;;;2.78;;
79755;SDS011;69239;50.678;12.280;2023-09-07T11:42:46;6.10;;;2.70;;
79755;SDS011;69239;50.678;12.280;2023-09-07T11:45:12;4.50;;;2.72;;
79755;SDS011;69239;50.678;12.280;2023-09-07T11:47:38;6.75;;;3.22;;
79755;SDS011;69239;50.678;12.280;2023-09-07T11:50:04;4.75;;;2.53;;
79755;SDS011;69239;50.678;12.280;2023-09-07T11:52:31;5.95;;;3.35;;
79755;SDS011;69239;50.678;12.280;2023-09-07T11:54:57;8.23;;;3.10;;
79755;SDS011;69239;50.678;12.280;2023-09-07T11:57:22;4.47;;;2.67;;
79755;SDS011;69239;50.678;12.280;2023-09-07T11:59:47;3.17;;;2.58;;
79755;SDS011;69239;50.678;12.280;2023-09-07T12:02:13;11.40;;;3.17;;
79755;SDS011;69239;50.678;12.280;2023-09-07T12:04:40;2.88;;;2.50;;
79755;SDS011;69239;50.678;12.280;2023-09-07T12:07:05;4.28;;;2.92;;
79755;SDS011;69239;50.678;12.280;2023-09-07T12:09:31;3.88;;;2.90;;
79755;SDS011;69239;50.678;12.280;2023-09-07T12:11:56;5.20;;;2.85;;
79755;SDS011;69239;50.678;12.280;2023-09-07T12:14:22;5.55;;;2.53;;
79755;SDS011;69239;50.678;12.280;2023-09-07T12:16:47;7.43;;;2.67;;
79755;SDS011;69239;50.678;12.280;2023-09-07T12:19:13;6.18;;;2.40;;
79755;SDS011;69239;50.678;12.280;2023-09-07T12:21:38;4.18;;;2.90;;
79755;SDS011;69239;50.678;12.280;2023-09-07T12:24:03;2.90;;;2.60;;
79755;SDS011;69239;50.678;12.280;2023-09-07T12:26:29;3.42;;;2.42;;
79755;SDS011;69239;50.678;12.280;2023-09-07T12:28:54;4.68;;;2.75;;
79755;SDS011;69239;50.678;12.280;2023-09-07T12:31:20;3.13;;;2.72;;
79755;SDS011;69239;50.678;12.280;2023-09-07T12:33:45;3.00;;;2.30;;
79755;SDS011;69239;50.678;12.280;2023-09-07T12:36:10;3.28;;;2.65;;
79755;SDS011;69239;50.678;12.280;2023-09-07T12:38:36;2.97;;;2.50;;
79755;SDS011;69239;50.678;12.280;2023-09-07T12:41:02;5.25;;;2.60;;
79755;SDS011;69239;50.678;12.280;2023-09-07T12:43:27;2.88;;;2.42;;
79755;SDS011;69239;50.678;12.280;2023-09-07T12:45:53;2.63;;;2.35;;
79755;SDS011;69239;50.678;12.280;2023-09-07T12:48:19;5.03;;;2.40;;
79755;SDS011;69239;50.678;12.280;2023-09-07T12:50:44;2.60;;;2.40;;
79755;SDS011;69239;50.678;12.280;2023-09-07T12:53:10;6.63;;;2.50;;
79755;SDS011;69239;50.678;12.280;2023-09-07T12:55:35;4.38;;;2.58;;
79755;SDS011;69239;50.678;12.280;2023-09-07T12:58:00;4.63;;;2.65;;
79755;SDS011;69239;50.678;12.280;2023-09-07T13:00:26;3.50;;;2.53;;
79755;SDS011;69239;50.678;12.280;2023-09-07T13:02:54;4.82;;;2.88;;
79755;SDS011;69239;50.678;12.280;2023-09-07T13:05:19;5.30;;;2.63;;
79755;SDS011;69239;50.678;12.280;2023-09-07T13:07:45;3.70;;;2.65;;
79755;SDS011;69239;50.678;12.280;2023-09-07T13:10:10;5.60;;;2.53;;
79755;SDS011;69239;50.678;12.280;2023-09-07T13:12:36;4.43;;;2.55;;
79755;SDS011;69239;50.678;12.280;2023-09-07T13:15:02;3.28;;;2.60;;
79755;SDS011;69239;50.678;12.280;2023-09-07T13:17:29;3.33;;;2.40;;
79755;SDS011;69239;50.678;12.280;2023-09-07T13:19:54;2.97;;;2.50;;
79755;SDS011;69239;50.678;12.280;2023-09-07T13:22:20;2.72;;;2.40;;
79755;SDS011;69239;50.678;12.280;2023-09-07T13:24:48;3.55;;;2.35;;
79755;SDS011;69239;50.678;12.280;2023-09-07T13:27:15;2.83;;;2.53;;
79755;SDS011;69239;50.678;12.280;2023-09-07T13:29:41;3.35;;;2.35;;
79755;SDS011;69239;50.678;12.280;2023-09-07T13:32:06;6.22;;;2.53;;
79755;SDS011;69239;50.678;12.280;2023-09-07T13:34:31;4.05;;;2.38;;
79755;SDS011;69239;50.678;12.280;2023-09-07T13:36:57;5.22;;;2.42;;
79755;SDS011;69239;50.678;12.280;2023-09-07T13:39:22;3.30;;;2.53;;
79755;SDS011;69239;50.678;12.280;2023-09-07T13:41:48;3.67;;;2.50;;
79755;SDS011;69239;50.678;12.280;2023-09-07T13:44:14;3.28;;;2.50;;
79755;SDS011;69239;50.678;12.280;2023-09-07T13:46:40;5.30;;;2.60;;
79755;SDS011;69239;50.678;12.280;2023-09-07T13:49:06;4.57;;;2.40;;
79755;SDS011;69239;50.678;12.280;2023-09-07T13:51:32;4.30;;;2.40;;
79755;SDS011;69239;50.678;12.280;2023-09-07T13:54:03;2.47;;;2.20;;
79755;SDS011;69239;50.678;12.280;2023-09-07T13:56:29;3.65;;;2.20;;
79755;SDS011;69239;50.678;12.280;2023-09-07T13:58:54;3.75;;;2.50;;
79755;SDS011;69239;50.678;12.280;2023-09-07T14:01:19;3.35;;;2.42;;
79755;SDS011;69239;50.678;12.280;2023-09-07T14:03:46;5.30;;;2.60;;
79755;SDS011;69239;50.678;12.280;2023-09-07T14:06:11;4.70;;;2.40;;
79755;SDS011;69239;50.678;12.280;2023-09-07T14:08:36;3.13;;;2.20;;
79755;SDS011;69239;50.678;12.280;2023-09-07T14:11:02;3.15;;;2.28;;
79755;SDS011;69239;50.678;12.280;2023-09-07T14:13:27;4.15;;;2.58;;
79755;SDS011;69239;50.678;12.280;2023-09-07T14:15:52;4.70;;;2.47;;
79755;SDS011;69239;50.678;12.280;2023-09-07T14:18:18;2.72;;;2.38;;
79755;SDS011;69239;50.678;12.280;2023-09-07T14:20:43;3.60;;;2.53;;
79755;SDS011;69239;50.678;12.280;2023-09-07T14:23:09;4.03;;;2.35;;
79755;SDS011;69239;50.678;12.280;2023-09-07T14:25:34;7.75;;;2.65;;
79755;SDS011;69239;50.678;12.280;2023-09-07T14:27:59;5.72;;;2.30;;
79755;SDS011;69239;50.678;12.280;2023-09-07T14:30:25;4.13;;;2.58;;
79755;SDS011;69239;50.678;12.280;2023-09-07T14:32:50;4.28;;;2.13;;
79755;SDS011;69239;50.678;12.280;2023-09-07T14:35:16;5.00;;;2.80;;